createdAt,value
2023-05-18T00:00:16.254Z,7.79
2023-05-18T00:01:16.213Z,7.77
2023-05-18T00:02:16.367Z,7.76
2023-05-18T00:03:16.287Z,7.79
2023-05-18T00:04:16.316Z,7.77
2023-05-18T00:05:16.246Z,7.75
2023-05-18T00:06:16.265Z,7.76
2023-05-18T00:07:16.290Z,7.76
2023-05-18T00:08:16.296Z,7.77
2023-05-18T00:09:16.304Z,7.76
2023-05-18T00:10:16.368Z,7.74
2023-05-18T00:11:16.337Z,7.73
2023-05-18T00:12:16.324Z,7.72
2023-05-18T00:13:16.350Z,7.69
2023-05-18T00:14:16.369Z,7.66
2023-05-18T00:17:16.372Z,7.66
2023-05-18T00:18:16.380Z,7.65
2023-05-18T00:19:16.497Z,7.65
2023-05-18T00:20:16.381Z,7.64
2023-05-18T00:21:16.432Z,7.61
2023-05-18T00:23:16.399Z,7.56
2023-05-18T00:24:16.452Z,7.53
2023-05-18T00:25:16.373Z,7.50
2023-05-18T00:26:16.396Z,7.47
2023-05-18T00:27:16.378Z,7.44
2023-05-18T00:29:16.422Z,7.39
2023-05-18T00:30:16.396Z,7.39
2023-05-18T00:31:16.430Z,7.36
2023-05-18T00:32:16.404Z,7.34
2023-05-18T00:33:16.399Z,7.31
2023-05-18T00:35:16.396Z,7.26
2023-05-18T00:36:16.445Z,7.22
2023-05-18T00:37:16.385Z,7.21
2023-05-18T00:38:16.410Z,7.19
2023-05-18T00:39:16.378Z,7.14
2023-05-18T00:41:16.430Z,7.07
2023-05-18T00:42:16.397Z,7.04
2023-05-18T00:43:16.396Z,7.02
2023-05-18T00:44:16.427Z,7.00
2023-05-18T00:45:16.401Z,6.97
2023-05-18T00:47:16.400Z,6.91
2023-05-18T00:48:16.439Z,6.88
2023-05-18T00:49:16.397Z,6.88
2023-05-18T00:50:16.396Z,6.88
2023-05-18T00:51:16.411Z,6.88
2023-05-18T00:53:16.431Z,6.85
2023-05-18T00:54:16.417Z,6.84
2023-05-18T00:55:16.460Z,6.79
2023-05-18T00:56:16.408Z,6.79
2023-05-18T00:57:16.405Z,6.78
2023-05-18T00:59:16.423Z,6.76
2023-05-18T01:00:16.444Z,6.76
2023-05-18T01:01:16.456Z,6.76
2023-05-18T01:02:16.453Z,6.75
2023-05-18T01:03:16.523Z,6.76
2023-05-18T01:05:16.414Z,6.79
2023-05-18T01:06:16.421Z,6.83
2023-05-18T01:07:16.456Z,6.84
2023-05-18T01:08:16.410Z,6.87
2023-05-18T01:10:16.415Z,6.91
2023-05-18T01:11:16.484Z,6.91
2023-05-18T01:12:16.415Z,6.91
2023-05-18T01:13:16.451Z,6.92
2023-05-18T01:16:16.436Z,6.95
2023-05-18T01:17:16.499Z,6.95
2023-05-18T01:18:16.454Z,6.97
2023-05-18T01:19:16.584Z,6.96
2023-05-18T01:21:16.450Z,6.97
2023-05-18T01:22:16.426Z,6.96
2023-05-18T01:23:16.435Z,6.94
2023-05-18T01:24:16.443Z,6.93
2023-05-18T01:25:16.431Z,6.92
2023-05-18T01:27:16.435Z,6.91
2023-05-18T01:28:16.480Z,6.88
2023-05-18T01:29:16.433Z,6.88
2023-05-18T01:30:16.495Z,6.87
2023-05-18T01:33:16.453Z,6.86
2023-05-18T01:34:16.467Z,6.85
2023-05-18T01:35:16.519Z,6.84
2023-05-18T01:36:16.502Z,6.83
2023-05-18T01:37:16.467Z,6.82
2023-05-18T01:39:16.461Z,6.80
2023-05-18T01:40:16.478Z,6.80
2023-05-18T01:41:16.450Z,6.79
2023-05-18T01:42:16.437Z,6.80
2023-05-18T01:44:16.458Z,6.80
2023-05-18T01:45:16.472Z,6.79
2023-05-18T01:46:16.488Z,6.78
2023-05-18T01:47:16.456Z,6.78
2023-05-18T01:49:16.444Z,6.77
2023-05-18T01:50:16.463Z,6.77
2023-05-18T01:51:16.456Z,6.75
2023-05-18T01:52:16.479Z,6.74
2023-05-18T01:54:16.480Z,6.73
2023-05-18T01:55:16.477Z,6.72
2023-05-18T01:56:16.463Z,6.72
2023-05-18T01:57:16.471Z,6.71
2023-05-18T01:59:16.504Z,6.70
2023-05-18T02:00:16.461Z,6.68
2023-05-18T02:01:16.504Z,6.67
2023-05-18T02:02:16.618Z,6.65
2023-05-18T02:04:16.529Z,6.63
2023-05-18T02:05:16.487Z,6.63
2023-05-18T02:06:16.475Z,6.62
2023-05-18T02:07:16.517Z,6.60
2023-05-18T02:09:16.551Z,6.60
2023-05-18T02:10:16.480Z,6.61
2023-05-18T02:11:16.539Z,6.58
2023-05-18T02:12:16.499Z,6.57
2023-05-18T02:15:16.478Z,6.55
2023-05-18T02:16:16.499Z,6.52
2023-05-18T02:17:16.484Z,6.53
2023-05-18T02:18:16.469Z,6.50
2023-05-18T02:20:16.526Z,6.47
2023-05-18T02:21:16.502Z,6.44
2023-05-18T02:22:16.473Z,6.42
2023-05-18T02:23:16.487Z,6.41
2023-05-18T02:25:16.525Z,6.38
2023-05-18T02:26:16.484Z,6.36
2023-05-18T02:27:16.548Z,6.34
2023-05-18T02:28:16.502Z,6.32
2023-05-18T02:30:16.474Z,6.31
2023-05-18T02:31:16.527Z,6.33
2023-05-18T02:32:16.514Z,6.32
2023-05-18T02:33:16.539Z,6.31
2023-05-18T02:35:16.489Z,6.27
2023-05-18T02:36:16.526Z,6.24
2023-05-18T02:37:16.496Z,6.21
2023-05-18T02:38:16.502Z,6.17
2023-05-18T02:41:16.484Z,6.11
2023-05-18T02:42:16.503Z,6.11
2023-05-18T02:43:16.504Z,6.09
2023-05-18T02:44:16.503Z,6.07
2023-05-18T02:46:16.659Z,6.06
2023-05-18T02:47:16.519Z,6.06
2023-05-18T02:48:16.510Z,6.06
2023-05-18T02:49:16.548Z,6.06
2023-05-18T02:51:16.519Z,6.03
2023-05-18T02:52:16.523Z,6.03
2023-05-18T02:53:16.528Z,6.02
2023-05-18T02:54:16.522Z,6.02
2023-05-18T02:57:16.519Z,6.03
2023-05-18T02:58:16.548Z,6.02
2023-05-18T02:59:16.523Z,6.00
2023-05-18T03:00:16.614Z,6.00
2023-05-18T03:02:16.646Z,6.01
2023-05-18T03:03:16.661Z,6.02
2023-05-18T03:04:16.530Z,6.03
2023-05-18T03:05:16.541Z,6.03
2023-05-18T03:08:16.526Z,6.03
2023-05-18T03:09:16.527Z,6.03
2023-05-18T03:10:16.529Z,6.01
2023-05-18T03:11:16.529Z,6.03
2023-05-18T03:14:16.546Z,6.02
2023-05-18T03:15:16.549Z,6.03
2023-05-18T03:16:16.643Z,6.01
2023-05-18T03:17:16.547Z,6.01
2023-05-18T03:20:16.600Z,5.98
2023-05-18T03:21:16.535Z,5.97
2023-05-18T03:22:16.564Z,5.96
2023-05-18T03:23:16.544Z,5.94
2023-05-18T03:25:16.555Z,5.93
2023-05-18T03:26:16.556Z,5.90
2023-05-18T03:27:16.595Z,5.90
2023-05-18T03:28:16.560Z,5.85
2023-05-18T03:30:16.583Z,5.84
2023-05-18T03:31:16.579Z,5.84
2023-05-18T03:32:16.537Z,5.82
2023-05-18T03:33:16.591Z,5.81
2023-05-18T03:35:16.608Z,5.79
2023-05-18T03:36:16.561Z,5.80
2023-05-18T03:37:16.601Z,5.78
2023-05-18T03:38:16.589Z,5.76
2023-05-18T03:40:16.563Z,5.74
2023-05-18T03:41:16.564Z,5.73
2023-05-18T03:42:16.547Z,5.70
2023-05-18T03:43:16.571Z,5.66
2023-05-18T03:46:16.582Z,5.62
2023-05-18T03:47:16.606Z,5.62
2023-05-18T03:48:16.607Z,5.62
2023-05-18T03:50:16.594Z,5.61
2023-05-18T03:51:16.572Z,5.60
2023-05-18T03:52:16.572Z,5.62
2023-05-18T03:53:16.597Z,5.62
2023-05-18T03:55:16.575Z,5.61
2023-05-18T03:56:16.591Z,5.61
2023-05-18T03:57:16.562Z,5.63
2023-05-18T03:58:16.581Z,5.59
2023-05-18T04:01:16.584Z,5.56
2023-05-18T04:02:16.679Z,5.54
2023-05-18T04:03:16.705Z,5.53
2023-05-18T04:04:16.694Z,5.52
2023-05-18T04:06:16.592Z,5.53
2023-05-18T04:07:16.601Z,5.52
2023-05-18T04:08:16.595Z,5.52
2023-05-18T04:09:16.585Z,5.54
2023-05-18T04:11:16.601Z,5.55
2023-05-18T04:12:16.620Z,5.55
2023-05-18T04:13:16.597Z,5.57
2023-05-18T04:14:16.656Z,5.55
2023-05-18T04:16:16.651Z,5.55
2023-05-18T04:17:16.581Z,5.57
2023-05-18T04:18:16.615Z,5.58
2023-05-18T04:19:16.656Z,5.60
2023-05-18T04:21:16.592Z,5.64
2023-05-18T04:22:16.606Z,5.66
2023-05-18T04:23:16.632Z,5.68
2023-05-18T04:24:16.618Z,5.69
2023-05-18T04:26:16.614Z,5.73
2023-05-18T04:27:16.617Z,5.73
2023-05-18T04:28:16.677Z,5.72
2023-05-18T04:29:16.599Z,5.70
2023-05-18T04:31:16.624Z,5.69
2023-05-18T04:32:16.733Z,5.69
2023-05-18T04:33:16.670Z,5.69
2023-05-18T04:34:16.606Z,5.69
2023-05-18T04:36:17.112Z,5.69
2023-05-18T04:38:16.647Z,5.72
2023-05-18T04:39:16.631Z,5.72
2023-05-18T04:40:16.672Z,5.74
2023-05-18T04:41:16.635Z,5.73
2023-05-18T04:43:16.629Z,5.80
2023-05-18T04:44:16.640Z,5.79
2023-05-18T04:45:16.622Z,5.80
2023-05-18T04:46:16.711Z,5.81
2023-05-18T04:48:16.667Z,5.86
2023-05-18T04:49:16.624Z,5.88
2023-05-18T04:50:16.661Z,5.90
2023-05-18T04:51:16.642Z,5.92
2023-05-18T04:53:16.644Z,5.98
2023-05-18T04:54:16.650Z,5.98
2023-05-18T04:55:16.671Z,5.99
2023-05-18T04:56:16.681Z,5.99
2023-05-18T04:58:16.665Z,6.02
2023-05-18T04:59:16.689Z,6.04
2023-05-18T05:00:16.657Z,6.07
2023-05-18T05:01:16.697Z,6.10
2023-05-18T05:03:16.809Z,6.13
2023-05-18T05:04:16.639Z,6.14
2023-05-18T05:05:16.637Z,6.16
2023-05-18T05:06:16.717Z,6.18
2023-05-18T05:08:16.662Z,6.21
2023-05-18T05:09:16.652Z,6.23
2023-05-18T05:10:16.668Z,6.26
2023-05-18T05:11:16.642Z,6.29
2023-05-18T05:14:16.688Z,6.40
2023-05-18T05:15:16.662Z,6.43
2023-05-18T05:16:16.741Z,6.48
2023-05-18T05:17:16.671Z,6.52
2023-05-18T05:19:16.689Z,6.56
2023-05-18T05:20:16.705Z,6.59
2023-05-18T05:21:16.664Z,6.61
2023-05-18T05:22:16.699Z,6.62
2023-05-18T05:24:16.658Z,6.68
2023-05-18T05:25:16.657Z,6.71
2023-05-18T05:26:16.659Z,6.74
2023-05-18T05:27:16.671Z,6.76
2023-05-18T05:29:16.657Z,6.82
2023-05-18T05:30:16.664Z,6.84
2023-05-18T05:31:16.714Z,6.88
2023-05-18T05:32:16.712Z,6.91
2023-05-18T05:34:16.662Z,6.93
2023-05-18T05:35:16.675Z,6.97
2023-05-18T05:36:16.679Z,7.00
2023-05-18T05:37:16.686Z,7.04
2023-05-18T05:41:16.686Z,7.12
2023-05-18T05:42:16.682Z,7.13
2023-05-18T05:43:16.692Z,7.15
2023-05-18T05:46:16.767Z,7.25
2023-05-18T05:47:16.750Z,7.26
2023-05-18T05:48:16.763Z,7.28
2023-05-18T05:49:16.698Z,7.30
2023-05-18T05:52:16.714Z,7.40
2023-05-18T05:53:16.704Z,7.42
2023-05-18T05:54:16.694Z,7.43
2023-05-18T05:55:16.711Z,7.47
2023-05-18T05:58:16.719Z,7.50
2023-05-18T05:59:16.739Z,7.50
2023-05-18T06:00:16.689Z,7.52
2023-05-18T06:01:16.709Z,7.59
2023-05-18T06:03:16.769Z,7.65
2023-05-18T06:04:16.718Z,7.69
2023-05-18T06:05:16.740Z,7.72
2023-05-18T06:06:16.751Z,7.77
2023-05-18T06:08:16.823Z,7.83
2023-05-18T06:09:16.714Z,7.86
2023-05-18T06:10:16.800Z,7.89
2023-05-18T06:11:16.706Z,7.93
2023-05-18T06:13:16.705Z,8.00
2023-05-18T06:14:16.734Z,8.03
2023-05-18T06:15:16.743Z,8.05
2023-05-18T06:16:16.779Z,8.06
2023-05-18T06:19:16.792Z,8.10
2023-05-18T06:20:16.743Z,8.15
2023-05-18T06:21:16.742Z,8.19
2023-05-18T06:24:16.744Z,8.31
2023-05-18T06:25:16.725Z,8.35
2023-05-18T06:26:16.734Z,8.38
2023-05-18T06:27:16.733Z,8.43
2023-05-18T06:30:16.746Z,8.60
2023-05-18T06:31:16.743Z,8.64
2023-05-18T06:32:16.804Z,8.70
2023-05-18T06:33:16.810Z,8.75
2023-05-18T06:35:16.739Z,8.82
2023-05-18T06:36:16.755Z,8.88
2023-05-18T06:37:16.726Z,8.93
2023-05-18T06:38:16.741Z,8.99
2023-05-18T06:40:16.759Z,9.11
2023-05-18T06:41:16.737Z,9.16
2023-05-18T06:42:16.777Z,9.21
2023-05-18T06:43:16.776Z,9.24
2023-05-18T06:45:16.742Z,9.35
2023-05-18T06:46:16.785Z,9.38
2023-05-18T06:47:16.753Z,9.41
2023-05-18T06:49:03.937Z,9.50
2023-05-18T06:50:03.926Z,9.55
2023-05-18T06:51:03.934Z,9.62
2023-05-18T06:52:03.964Z,9.69
2023-05-18T06:53:03.951Z,9.80
2023-05-18T06:54:03.932Z,9.90
2023-05-18T06:55:03.974Z,9.96
2023-05-18T06:56:03.950Z,10.02
2023-05-18T06:57:03.939Z,10.11
2023-05-18T06:58:03.973Z,10.20
2023-05-18T06:59:03.939Z,10.29
2023-05-18T07:00:03.981Z,10.34
2023-05-18T07:01:03.993Z,10.37
2023-05-18T07:02:04.065Z,10.41
2023-05-18T07:03:04.015Z,10.47
2023-05-18T07:04:03.981Z,10.53
2023-05-18T07:05:03.961Z,10.60
2023-05-18T07:06:03.940Z,10.69
2023-05-18T07:07:03.959Z,10.75
2023-05-18T07:08:04.021Z,10.81
2023-05-18T07:09:03.971Z,10.91
2023-05-18T07:10:03.978Z,11.04
2023-05-18T07:11:03.976Z,11.20
2023-05-18T07:12:03.962Z,11.36
2023-05-18T07:13:03.999Z,11.57
2023-05-18T07:14:03.962Z,11.72
2023-05-18T07:15:03.962Z,11.89
2023-05-18T07:16:04.000Z,12.11
2023-05-18T07:17:03.997Z,12.29
2023-05-18T07:18:04.005Z,12.49
2023-05-18T07:19:04.036Z,12.67
2023-05-18T07:20:03.966Z,12.84
2023-05-18T07:21:03.976Z,13.01
2023-05-18T07:22:03.985Z,13.30
2023-05-18T07:23:03.961Z,13.65
2023-05-18T07:24:04.011Z,13.97
2023-05-18T07:25:04.122Z,14.01
2023-05-18T07:26:04.148Z,14.11
2023-05-18T07:27:04.155Z,14.20
2023-05-18T07:28:04.163Z,14.38
2023-05-18T07:29:04.213Z,14.42
2023-05-18T07:30:04.176Z,14.48
2023-05-18T07:31:04.280Z,14.57
2023-05-18T07:32:04.240Z,14.68
2023-05-18T07:33:04.246Z,14.74
2023-05-18T07:34:04.214Z,14.82
2023-05-18T07:35:04.219Z,14.79
2023-05-18T07:36:04.234Z,14.72
2023-05-18T07:37:04.252Z,14.78
2023-05-18T07:38:04.324Z,15.02
2023-05-18T07:39:04.269Z,15.28
2023-05-18T07:40:04.313Z,15.49
2023-05-18T07:41:04.300Z,15.67
2023-05-18T07:42:04.338Z,15.91
2023-05-18T07:43:04.343Z,16.02
2023-05-18T07:44:04.328Z,16.05
2023-05-18T07:45:04.380Z,16.16
2023-05-18T07:46:04.384Z,16.30
2023-05-18T07:47:04.460Z,16.40
2023-05-18T07:48:04.484Z,16.41
2023-05-18T07:49:04.444Z,16.53
2023-05-18T07:50:04.405Z,16.69
2023-05-18T07:51:04.443Z,16.57
2023-05-18T07:52:04.446Z,16.53
2023-05-18T07:53:04.458Z,16.67
2023-05-18T07:54:04.489Z,16.83
2023-05-18T07:55:04.493Z,16.78
2023-05-18T07:56:04.483Z,16.80
2023-05-18T07:57:04.497Z,16.65
2023-05-18T07:58:04.564Z,16.55
2023-05-18T07:59:04.552Z,16.55
2023-05-18T08:00:04.546Z,16.65
2023-05-18T08:01:04.544Z,16.85
2023-05-18T08:02:04.620Z,16.94
2023-05-18T08:03:04.649Z,16.86
2023-05-18T08:04:04.754Z,16.87
2023-05-18T08:05:04.654Z,16.82
2023-05-18T08:06:04.634Z,16.90
2023-05-18T08:07:04.630Z,16.93
2023-05-18T08:08:06.608Z,16.82
2023-05-18T08:09:04.655Z,16.80
2023-05-18T08:10:04.699Z,16.90
2023-05-18T08:11:04.693Z,16.95
2023-05-18T08:12:04.704Z,16.98
2023-05-18T08:13:04.735Z,17.08
2023-05-18T08:14:04.724Z,17.14
2023-05-18T08:15:04.745Z,17.16
2023-05-18T08:16:11.983Z,17.20
2023-05-18T08:17:04.908Z,17.22
2023-05-18T08:18:04.838Z,17.18
2023-05-18T08:19:04.839Z,17.11
2023-05-18T08:20:04.755Z,17.02
2023-05-18T08:21:04.787Z,16.95
2023-05-18T08:22:04.755Z,16.91
2023-05-18T08:23:04.755Z,16.88
2023-05-18T08:24:04.735Z,16.98
2023-05-18T08:25:04.751Z,17.09
2023-05-18T08:26:04.766Z,17.22
2023-05-18T08:27:04.754Z,17.34
2023-05-18T08:28:04.803Z,17.48
2023-05-18T08:29:04.789Z,17.70
2023-05-18T08:30:04.755Z,17.86
2023-05-18T08:31:04.767Z,17.90
2023-05-18T08:32:04.830Z,17.83
2023-05-18T08:33:04.838Z,17.86
2023-05-18T08:34:04.797Z,17.89
2023-05-18T08:35:04.758Z,17.99
2023-05-18T08:36:04.797Z,17.95
2023-05-18T08:37:04.766Z,17.75
2023-05-18T08:38:05.756Z,17.52
2023-05-18T08:39:04.806Z,17.37
2023-05-18T08:40:04.803Z,17.21
2023-05-18T08:41:04.792Z,17.01
2023-05-18T08:42:04.761Z,16.95
2023-05-18T08:43:04.784Z,17.04
2023-05-18T08:44:04.825Z,17.02
2023-05-18T08:45:04.784Z,17.03
2023-05-18T08:46:04.781Z,17.20
2023-05-18T08:47:04.787Z,17.45
2023-05-18T08:48:04.902Z,17.64
2023-05-18T08:49:04.856Z,17.90
2023-05-18T08:50:04.768Z,18.09
2023-05-18T08:51:04.788Z,18.25
2023-05-18T08:52:04.824Z,18.42
2023-05-18T08:53:04.816Z,18.51
2023-05-18T08:54:04.824Z,18.68
2023-05-18T08:55:04.801Z,18.78
2023-05-18T08:56:04.777Z,18.82
2023-05-18T08:57:04.790Z,18.79
2023-05-18T08:58:04.832Z,18.78
2023-05-18T08:59:04.800Z,18.79
2023-05-18T09:00:04.833Z,18.92
2023-05-18T09:01:04.870Z,19.09
2023-05-18T09:02:04.882Z,19.32
2023-05-18T09:03:04.902Z,19.32
2023-05-18T09:04:04.859Z,19.24
2023-05-18T09:05:04.836Z,19.15
2023-05-18T09:06:04.861Z,19.01
2023-05-18T09:07:04.852Z,18.81
2023-05-18T09:08:05.059Z,18.61
2023-05-18T09:09:04.916Z,18.52
2023-05-18T09:10:04.914Z,18.49
2023-05-18T09:11:04.913Z,18.32
2023-05-18T09:12:04.957Z,18.21
2023-05-18T09:13:04.960Z,18.21
2023-05-18T09:14:04.970Z,18.19
2023-05-18T09:15:05.019Z,18.21
2023-05-18T09:16:05.024Z,18.28
2023-05-18T09:17:05.003Z,18.26
2023-05-18T09:18:05.066Z,18.21
2023-05-18T09:19:05.116Z,18.09
2023-05-18T09:20:05.027Z,17.97
2023-05-18T09:21:05.037Z,17.69
2023-05-18T09:22:05.062Z,17.52
2023-05-18T09:23:05.107Z,17.59
2023-05-18T09:24:05.126Z,17.80
2023-05-18T09:25:05.107Z,18.13
2023-05-18T09:26:05.100Z,18.31
2023-05-18T09:27:05.118Z,18.28
2023-05-18T09:28:05.139Z,18.10
2023-05-18T09:29:05.204Z,18.03
2023-05-18T09:30:05.158Z,18.10
2023-05-18T09:31:05.173Z,18.28
2023-05-18T09:32:05.225Z,18.29
2023-05-18T09:33:05.288Z,18.29
2023-05-18T09:34:05.253Z,18.32
2023-05-18T09:35:05.237Z,18.51
2023-05-18T09:36:05.248Z,18.65
2023-05-18T09:37:05.286Z,18.67
2023-05-18T09:38:05.255Z,18.70
2023-05-18T09:39:05.264Z,18.74
2023-05-18T09:40:05.299Z,18.69
2023-05-18T09:41:05.300Z,18.57
2023-05-18T09:42:05.328Z,18.29
2023-05-18T09:43:05.335Z,18.13
2023-05-18T09:44:05.352Z,17.95
2023-05-18T09:45:05.402Z,17.78
2023-05-18T09:46:05.355Z,17.61
2023-05-18T09:47:05.440Z,17.34
2023-05-18T09:48:05.432Z,17.17
2023-05-18T09:49:05.416Z,17.21
2023-05-18T09:50:05.414Z,17.47
2023-05-18T09:51:05.424Z,17.75
2023-05-18T09:52:05.419Z,17.94
2023-05-18T09:53:05.448Z,18.09
2023-05-18T09:54:05.504Z,18.18
2023-05-18T09:55:05.485Z,18.09
2023-05-18T09:56:05.469Z,17.97
2023-05-18T09:58:05.487Z,17.87
2023-05-18T09:59:05.484Z,17.98
2023-05-18T10:00:05.505Z,18.20
2023-05-18T10:01:05.523Z,18.56
2023-05-18T10:02:05.504Z,19.04
2023-05-18T10:03:05.559Z,19.37
2023-05-18T10:04:05.631Z,19.49
2023-05-18T10:05:05.523Z,19.51
2023-05-18T10:06:05.504Z,19.37
2023-05-18T10:07:05.518Z,19.12
2023-05-18T10:08:05.498Z,18.83
2023-05-18T10:09:05.503Z,18.58
2023-05-18T10:10:07.762Z,18.38
2023-05-18T10:11:05.504Z,18.24
2023-05-18T10:12:05.514Z,18.13
2023-05-18T10:13:05.512Z,18.41
2023-05-18T10:14:05.522Z,18.79
2023-05-18T10:15:05.543Z,19.18
2023-05-18T10:16:05.520Z,19.40
2023-05-18T10:17:15.182Z,19.76
2023-05-18T10:18:05.583Z,20.04
2023-05-18T10:19:05.585Z,20.13
2023-05-18T10:20:05.533Z,20.05
2023-05-18T10:21:05.561Z,19.83
2023-05-18T10:22:05.527Z,19.38
2023-05-18T10:23:05.567Z,18.87
2023-05-18T10:24:05.563Z,18.38
2023-05-18T10:25:05.548Z,18.04
2023-05-18T10:26:05.550Z,17.98
2023-05-18T10:27:05.544Z,18.23
2023-05-18T10:28:05.574Z,18.72
2023-05-18T10:29:05.521Z,19.17
2023-05-18T10:30:05.532Z,19.44
2023-05-18T10:31:05.586Z,19.78
2023-05-18T10:32:07.693Z,20.19
2023-05-18T10:33:09.159Z,20.40
2023-05-18T10:34:05.543Z,20.51
2023-05-18T10:35:05.538Z,20.48
2023-05-18T10:36:05.555Z,20.57
2023-05-18T10:37:05.575Z,20.75
2023-05-18T10:38:05.557Z,21.02
2023-05-18T10:39:05.562Z,21.34
2023-05-18T10:40:05.597Z,21.35
2023-05-18T10:41:05.571Z,21.18
2023-05-18T10:42:05.552Z,21.06
2023-05-18T10:43:05.549Z,21.12
2023-05-18T10:44:05.548Z,21.14
2023-05-18T10:45:05.705Z,21.21
2023-05-18T10:46:05.694Z,21.22
2023-05-18T10:47:05.780Z,21.01
2023-05-18T10:48:05.598Z,20.76
2023-05-18T10:49:05.581Z,20.52
2023-05-18T10:50:05.558Z,20.45
2023-05-18T10:51:05.588Z,20.59
2023-05-18T10:52:05.597Z,20.86
2023-05-18T10:53:05.574Z,21.03
2023-05-18T10:54:05.573Z,20.90
2023-05-18T10:55:05.574Z,20.76
2023-05-18T10:56:05.590Z,20.62
2023-05-18T10:57:05.585Z,20.54
2023-05-18T10:58:05.598Z,20.43
2023-05-18T10:59:05.581Z,20.38
2023-05-18T11:00:05.588Z,20.50
2023-05-18T11:01:05.600Z,20.79
2023-05-18T11:02:05.758Z,21.10
2023-05-18T11:03:05.654Z,21.48
2023-05-18T11:04:05.589Z,21.83
2023-05-18T11:05:05.673Z,22.13
2023-05-18T11:06:05.581Z,22.35
2023-05-18T11:07:05.611Z,22.55
2023-05-18T11:08:05.744Z,22.80
2023-05-18T11:09:05.587Z,22.92
2023-05-18T11:10:07.301Z,22.96
2023-05-18T11:11:05.610Z,22.96
2023-05-18T11:12:05.633Z,22.83
2023-05-18T11:13:05.598Z,22.73
2023-05-18T11:14:05.634Z,22.69
2023-05-18T11:15:05.597Z,22.48
2023-05-18T11:16:05.685Z,21.99
2023-05-18T11:17:05.717Z,21.54
2023-05-18T11:18:05.676Z,21.08
2023-05-18T11:19:05.695Z,20.73
2023-05-18T11:20:05.606Z,20.54
2023-05-18T11:21:05.610Z,20.59
2023-05-18T11:22:05.618Z,20.90
2023-05-18T11:23:05.640Z,21.25
2023-05-18T11:24:05.665Z,21.59
2023-05-18T11:25:05.640Z,21.84
2023-05-18T11:26:05.628Z,22.07
2023-05-18T11:27:05.621Z,22.40
2023-05-18T11:28:05.655Z,22.77
2023-05-18T11:29:05.677Z,22.88
2023-05-18T11:30:15.209Z,22.58
2023-05-18T11:31:05.658Z,22.31
2023-05-18T11:32:05.700Z,22.10
2023-05-18T11:33:05.819Z,22.09
2023-05-18T11:34:05.668Z,22.22
2023-05-18T11:35:05.649Z,22.35
2023-05-18T11:36:05.682Z,22.43
2023-05-18T11:37:05.650Z,22.19
2023-05-18T11:38:05.647Z,21.86
2023-05-18T11:39:05.650Z,21.39
2023-05-18T11:40:09.215Z,21.07
2023-05-18T11:41:05.649Z,20.93
2023-05-18T11:42:05.661Z,21.07
2023-05-18T11:43:05.649Z,21.33
2023-05-18T11:44:05.639Z,21.63
2023-05-18T11:45:05.650Z,21.78
2023-05-18T11:46:05.684Z,21.60
2023-05-18T11:47:05.714Z,21.20
2023-05-18T11:48:05.724Z,20.75
2023-05-18T11:49:05.674Z,20.51
2023-05-18T11:50:05.711Z,20.40
2023-05-18T11:51:05.681Z,20.28
2023-05-18T11:52:05.663Z,20.30
2023-05-18T11:53:05.685Z,20.43
2023-05-18T11:54:05.671Z,20.70
2023-05-18T11:55:05.669Z,20.95
2023-05-18T11:56:05.667Z,21.21
2023-05-18T11:57:05.702Z,21.46
2023-05-18T11:58:05.679Z,21.68
2023-05-18T11:59:05.687Z,22.05
2023-05-18T12:00:05.656Z,22.43
2023-05-18T12:01:05.673Z,22.50
2023-05-18T12:02:05.732Z,22.71
2023-05-18T12:03:05.844Z,22.99
2023-05-18T12:04:05.794Z,23.25
2023-05-18T12:05:05.667Z,23.48
2023-05-18T12:06:05.692Z,23.55
2023-05-18T12:07:05.879Z,23.29
2023-05-18T12:08:05.685Z,23.01
2023-05-18T12:09:05.667Z,22.66
2023-05-18T12:10:05.691Z,22.29
2023-05-18T12:11:05.699Z,22.07
2023-05-18T12:12:05.688Z,22.13
2023-05-18T12:13:05.751Z,22.33
2023-05-18T12:14:05.687Z,22.58
2023-05-18T12:15:05.718Z,22.82
2023-05-18T12:16:05.697Z,23.04
2023-05-18T12:17:05.853Z,23.26
2023-05-18T12:18:05.796Z,23.42
2023-05-18T12:19:05.758Z,23.58
2023-05-18T12:20:05.708Z,23.53
2023-05-18T12:21:05.698Z,23.57
2023-05-18T12:22:05.688Z,23.70
2023-05-18T12:23:05.730Z,23.74
2023-05-18T12:24:05.750Z,23.70
2023-05-18T12:25:05.718Z,23.71
2023-05-18T12:26:05.710Z,23.66
2023-05-18T12:27:07.526Z,23.73
2023-05-18T12:28:05.703Z,23.96
2023-05-18T12:29:05.735Z,24.13
2023-05-18T12:30:05.760Z,24.18
2023-05-18T12:31:05.749Z,24.14
2023-05-18T12:32:05.722Z,24.05
2023-05-18T12:33:05.777Z,23.63
2023-05-18T12:34:05.733Z,23.25
2023-05-18T12:35:05.742Z,22.89
2023-05-18T12:36:05.727Z,22.48
2023-05-18T12:37:05.776Z,22.31
2023-05-18T12:38:05.767Z,22.28
2023-05-18T12:39:05.738Z,22.53
2023-05-18T12:40:05.725Z,23.03
2023-05-18T12:41:05.739Z,23.51
2023-05-18T12:42:05.755Z,23.90
2023-05-18T12:43:05.723Z,23.88
2023-05-18T12:44:05.715Z,23.71
2023-05-18T12:45:06.750Z,23.40
2023-05-18T12:46:05.766Z,23.36
2023-05-18T12:47:05.768Z,23.57
2023-05-18T12:48:05.872Z,23.93
2023-05-18T12:49:05.740Z,24.44
2023-05-18T12:50:05.753Z,24.74
2023-05-18T12:51:05.748Z,24.72
2023-05-18T12:52:05.761Z,24.72
2023-05-18T12:53:05.783Z,24.79
2023-05-18T12:54:05.734Z,24.91
2023-05-18T12:55:05.798Z,25.09
2023-05-18T12:56:05.756Z,25.23
2023-05-18T12:57:05.785Z,25.31
2023-05-18T12:58:05.827Z,25.29
2023-05-18T12:59:05.790Z,25.41
2023-05-18T13:00:05.760Z,25.49
2023-05-18T13:01:05.760Z,25.50
2023-05-18T13:02:05.904Z,24.98
2023-05-18T13:03:05.854Z,24.57
2023-05-18T13:04:05.810Z,24.57
2023-05-18T13:05:05.770Z,24.56
2023-05-18T13:06:05.786Z,24.59
2023-05-18T13:07:05.817Z,24.57
2023-05-18T13:08:05.773Z,24.48
2023-05-18T13:09:05.870Z,24.61
2023-05-18T13:10:05.802Z,24.61
2023-05-18T13:11:13.475Z,24.58
2023-05-18T13:12:07.894Z,24.47
2023-05-18T13:13:05.823Z,24.19
2023-05-18T13:14:05.857Z,24.12
2023-05-18T13:15:05.814Z,24.08
2023-05-18T13:16:05.822Z,23.90
2023-05-18T13:17:05.925Z,23.76
2023-05-18T13:18:05.883Z,23.78
2023-05-18T13:19:05.921Z,23.97
2023-05-18T13:20:05.844Z,24.15
2023-05-18T13:21:05.812Z,24.18
2023-05-18T13:23:05.846Z,24.24
2023-05-18T13:24:23.474Z,24.39
2023-05-18T13:25:23.042Z,24.67
2023-05-18T13:26:22.986Z,24.79
2023-05-18T13:27:23.198Z,24.92
2023-05-18T13:28:23.091Z,24.98
2023-05-18T13:29:23.008Z,25.05
2023-05-18T13:30:23.517Z,25.22
2023-05-18T13:31:23.528Z,25.31
2023-05-18T13:32:23.162Z,25.44
2023-05-18T13:33:23.125Z,25.61
2023-05-18T13:34:23.101Z,25.72
2023-05-18T13:35:23.084Z,25.57
2023-05-18T13:36:23.096Z,25.34
2023-05-18T13:37:23.091Z,25.08
2023-05-18T13:38:23.067Z,24.49
2023-05-18T13:39:23.085Z,24.26
2023-05-18T13:40:23.067Z,24.20
2023-05-18T13:41:23.088Z,24.12
2023-05-18T13:42:23.090Z,24.02
2023-05-18T13:43:23.088Z,24.04
2023-05-18T13:44:23.128Z,24.10
2023-05-18T13:45:23.078Z,24.14
2023-05-18T13:46:23.166Z,24.00
2023-05-18T13:47:23.137Z,23.84
2023-05-18T13:48:23.079Z,23.96
2023-05-18T13:49:23.080Z,24.29
2023-05-18T13:50:23.296Z,24.34
2023-05-18T13:51:23.095Z,24.19
2023-05-18T13:52:23.077Z,24.08
2023-05-18T13:53:23.110Z,23.93
2023-05-18T13:54:23.090Z,23.99
2023-05-18T13:55:23.160Z,24.01
2023-05-18T13:56:23.106Z,23.99
2023-05-18T13:57:23.109Z,24.11
2023-05-18T13:58:23.078Z,24.28
2023-05-18T13:59:23.251Z,24.40
2023-05-18T14:00:23.231Z,24.47
2023-05-18T14:01:23.285Z,24.61
2023-05-18T14:02:23.306Z,24.84
2023-05-18T14:03:23.318Z,25.13
2023-05-18T14:04:23.293Z,25.32
2023-05-18T14:05:23.272Z,25.37
2023-05-18T14:06:23.371Z,25.23
2023-05-18T14:07:23.386Z,24.95
2023-05-18T14:08:23.352Z,24.84
2023-05-18T14:09:23.402Z,24.72
2023-05-18T14:10:23.359Z,24.67
2023-05-18T14:11:23.400Z,24.80
2023-05-18T14:12:23.418Z,24.93
2023-05-18T14:13:23.449Z,25.09
2023-05-18T14:14:23.424Z,25.29
2023-05-18T14:15:23.452Z,25.49
2023-05-18T14:16:23.604Z,25.52
2023-05-18T14:17:23.482Z,25.51
2023-05-18T14:18:23.452Z,25.41
2023-05-18T14:19:23.550Z,25.37
2023-05-18T14:20:23.575Z,25.45
2023-05-18T14:21:23.570Z,25.39
2023-05-18T14:22:23.491Z,25.36
2023-05-18T14:23:23.561Z,25.17
2023-05-18T14:24:23.555Z,24.83
2023-05-18T14:25:23.571Z,24.34
2023-05-18T14:26:23.578Z,24.02
2023-05-18T14:27:23.592Z,24.05
2023-05-18T14:28:23.575Z,24.10
2023-05-18T14:29:23.567Z,23.93
2023-05-18T14:30:23.634Z,23.58
2023-05-18T14:31:23.714Z,23.25
2023-05-18T14:32:23.808Z,23.10
2023-05-18T14:33:23.677Z,23.02
2023-05-18T14:34:23.681Z,23.08
2023-05-18T14:35:23.658Z,23.30
2023-05-18T14:36:23.657Z,23.46
2023-05-18T14:37:23.727Z,23.50
2023-05-18T14:38:23.701Z,23.53
2023-05-18T14:39:23.696Z,23.61
2023-05-18T14:40:23.754Z,23.67